Saturday, February 24, 2018, 12:11 PM CST
Back to Local

KIGQ, Chicago, Lansing Municipal Airport

Location: Chicago Heights, IL, United States Lat: 41.54
Local Time: 12:11 PM CST (18:11 GMT) Lon: -87.532
Time Zone: US/Central Elev: 616 ft

Show me the last for .
Show Decoded

2018-02-24 11:55 METAR KIGQ 241755Z AUTO 11010KT 10SM OVC017 06/04 A3002 RMK AO2 T00620038 10062
                 20010 =
2018-02-24 11:35 METAR KIGQ 241735Z AUTO 09010KT 10SM OVC017 06/03 A3005 RMK AO2 T00560034 =
2018-02-24 11:15 METAR KIGQ 241715Z AUTO 10007KT 10SM OVC017 05/03 A3007 RMK AO2 T00520031 =
2018-02-24 10:55 METAR KIGQ 241655Z AUTO 11007G15KT 10SM OVC017 05/03 A3009 RMK AO2 T00470026 =
2018-02-24 10:35 METAR KIGQ 241635Z AUTO 10008KT 10SM OVC017 04/02 A3011 RMK AO2 T00430021 =
2018-02-24 10:15 METAR KIGQ 241615Z AUTO 09010KT 10SM OVC017 04/02 A3012 RMK AO2 T00400018 =
2018-02-24 09:55 METAR KIGQ 241555Z AUTO 09009KT 10SM OVC015 04/02 A3013 RMK AO2 T00350015 =
2018-02-24 09:35 METAR KIGQ 241535Z AUTO 09006KT 10SM BKN015 OVC080 03/01 A3014 RMK AO2 T00270012
                 =
2018-02-24 09:15 METAR KIGQ 241515Z AUTO 07006KT 10SM BKN015 OVC085 02/01 A3015 RMK AO2 T00220007
                 =
2018-02-24 08:55 METAR KIGQ 241455Z AUTO 09006KT 10SM SCT013 OVC095 02/01 A3016 RMK AO2 T00230008
                 =
2018-02-24 08:35 METAR KIGQ 241435Z AUTO 06006KT 10SM OVC085 02/01 A3017 RMK AO2 T00200005 =
2018-02-24 08:15 METAR KIGQ 241415Z AUTO 07008KT 10SM OVC095 02/00 A3016 RMK AO2 T00180002 =
2018-02-24 07:55 METAR KIGQ 241355Z AUTO 07005KT 10SM OVC095 02/00 A3017 RMK AO2 T00160004 =
2018-02-24 07:35 METAR KIGQ 241335Z AUTO 06007KT 10SM OVC095 02/00 A3017 RMK AO2 T00150003 =
2018-02-24 07:15 METAR KIGQ 241315Z AUTO 06009KT 10SM OVC095 02/00 A3016 RMK AO2 T00150002 =
2018-02-24 06:55 METAR KIGQ 241255Z AUTO 06006KT 10SM OVC095 01/00 A3018 RMK AO2 T00120000 =
2018-02-24 06:35 METAR KIGQ 241235Z AUTO 04004KT 10SM OVC095 01/00 A3017 RMK AO2 T00100000 =
2018-02-24 06:15 METAR KIGQ 241215Z AUTO 05006KT 10SM OVC095 01/00 A3017 RMK AO2 T00101001 =
2018-02-24 05:55 METAR KIGQ 241155Z AUTO 06007G15KT 10SM SCT012 SCT019 OVC095 01/00 A3018 RMK AO2
                 T00101001 10025 20010 =
2018-02-24 05:35 METAR KIGQ 241135Z AUTO 06013KT 10SM BKN009 OVC016 01/00 A3018 RMK AO2 T00110002
                 =
2018-02-24 05:15 METAR KIGQ 241115Z AUTO 04009KT 7SM BKN009 OVC020 01/01 A3020 RMK AO2 T00130008
                 =
2018-02-24 04:55 METAR KIGQ 241055Z AUTO 06007KT 7SM SCT009 OVC020 01/01 A3019 RMK AO2 T00120005
                 =
2018-02-24 04:35 METAR KIGQ 241035Z AUTO 05006KT 7SM OVC020 01/00 A3019 RMK AO2 T00100003 =
2018-02-24 04:15 METAR KIGQ 241015Z AUTO 04010KT 7SM OVC020 01/00 A3020 RMK AO2 T00100001 =
2018-02-24 03:55 METAR KIGQ 240955Z AUTO 04007KT 10SM OVC020 01/00 A3021 RMK AO2 T00110000 =
2018-02-24 03:35 METAR KIGQ 240935Z AUTO 05006KT 10SM OVC020 02/00 A3022 RMK AO2 T00150000 =
2018-02-24 03:15 METAR KIGQ 240915Z AUTO 05003KT 7SM OVC018 02/00 A3023 RMK AO2 T00150000 =
2018-02-24 02:55 METAR KIGQ 240855Z AUTO 04006KT 10SM OVC018 02/00 A3023 RMK AO2 T00150000 =
2018-02-24 02:35 METAR KIGQ 240835Z AUTO 04005KT 10SM OVC018 02/00 A3023 RMK AO2 T00170000 =
2018-02-24 02:15 METAR KIGQ 240815Z AUTO 02003KT 10SM OVC018 02/00 A3023 RMK AO2 T00170000 =
2018-02-24 01:55 METAR KIGQ 240755Z AUTO 02004KT 10SM OVC018 02/00 A3023 RMK AO2 T00170001 =
2018-02-24 01:35 METAR KIGQ 240735Z AUTO 02005KT 10SM OVC018 02/00 A3024 RMK AO2 T00200000 =
2018-02-24 01:15 METAR KIGQ 240715Z AUTO 03006KT 10SM OVC018 02/01 A3023 RMK AO2 T00200005 =
2018-02-24 00:55 METAR KIGQ 240655Z AUTO 02005KT 10SM OVC018 02/01 A3022 RMK AO2 T00240010 =
2018-02-24 00:35 METAR KIGQ 240635Z AUTO 00000KT 10SM OVC018 02/01 A3024 RMK AO2 T00210010 =
2018-02-24 00:15 METAR KIGQ 240615Z AUTO 00000KT 10SM OVC018 02/01 A3025 RMK AO2 T00200007 =
2018-02-23 23:55 METAR KIGQ 240555Z AUTO 00000KT 10SM OVC018 02/01 A3025 RMK AO2 T00200006 10030
                 20017 400700017 =
2018-02-23 23:35 METAR KIGQ 240535Z AUTO 32004KT 10SM OVC020 02/01 A3026 RMK AO2 T00220008 =
2018-02-23 23:15 METAR KIGQ 240515Z AUTO 31004KT 10SM OVC020 02/02 A3026 RMK AO2 T00210015 =
2018-02-23 22:55 METAR KIGQ 240455Z AUTO 00000KT 10SM OVC020 02/02 A3026 RMK AO2 T00210015 =
2018-02-23 22:35 METAR KIGQ 240435Z AUTO 00000KT 10SM OVC020 02/02 A3027 RMK AO2 T00200015 =
2018-02-23 22:15 METAR KIGQ 240415Z AUTO 00000KT 10SM OVC020 02/02 A3027 RMK AO2 T00180015 =
2018-02-23 21:55 METAR KIGQ 240355Z AUTO 00000KT 10SM OVC020 02/01 A3027 RMK AO2 T00200013 =
2018-02-23 21:35 METAR KIGQ 240335Z AUTO 00000KT 10SM OVC018 03/02 A3027 RMK AO2 T00250015 =
2018-02-23 21:15 METAR KIGQ 240315Z AUTO 00000KT 10SM OVC018 03/02 A3027 RMK AO2 T00250015 =
2018-02-23 20:55 METAR KIGQ 240255Z AUTO 00000KT 10SM OVC018 03/02 A3027 RMK AO2 T00250015 =
2018-02-23 20:35 METAR KIGQ 240235Z AUTO 00000KT 10SM OVC018 03/01 A3026 RMK AO2 T00250012 =
2018-02-23 20:15 METAR KIGQ 240215Z AUTO 00000KT 10SM OVC018 03/02 A3026 RMK AO2 T00280015 =
2018-02-23 19:55 METAR KIGQ 240155Z AUTO 25003KT 10SM OVC016 03/02 A3026 RMK AO2 T00290015 =
2018-02-23 19:35 METAR KIGQ 240135Z AUTO 00000KT 10SM OVC016 03/02 A3026 RMK AO2 T00290015 =
2018-02-23 19:15 METAR KIGQ 240115Z AUTO 00000KT 10SM OVC016 03/01 A3026 RMK AO2 T00300013 =
2018-02-23 18:55 METAR KIGQ 240055Z AUTO 27006KT 10SM OVC014 03/02 A3027 RMK AO2 T00280015 =
2018-02-23 18:35 METAR KIGQ 240035Z AUTO 28004KT 10SM OVC012 03/02 A3026 RMK AO2 T00280015 =
2018-02-23 18:15 METAR KIGQ 240015Z AUTO 27008KT 10SM OVC012 03/02 A3026 RMK AO2 T00280016 =
2018-02-23 17:55 METAR KIGQ 232355Z AUTO 27009KT 10SM OVC010 03/02 A3026 RMK AO2 T00270016 10055
                 20027 =
2018-02-23 17:35 METAR KIGQ 232335Z AUTO 26008KT 10SM OVC010 03/02 A3026 RMK AO2 T00300020 =
2018-02-23 17:15 METAR KIGQ 232315Z AUTO 26010KT 10SM OVC010 03/02 A3025 RMK AO2 T00310021 =
2018-02-23 16:55 METAR KIGQ 232255Z AUTO 28008KT 10SM OVC010 03/03 A3024 RMK AO2 T00320025 =
2018-02-23 16:35 METAR KIGQ 232235Z AUTO 27007KT 10SM OVC010 03/03 A3023 RMK AO2 T00340026 =
2018-02-23 16:15 METAR KIGQ 232215Z AUTO 28009G15KT 10SM OVC010 04/03 A3023 RMK AO2 T00360026 =
2018-02-23 15:55 METAR KIGQ 232155Z AUTO 26007KT 10SM OVC010 04/03 A3022 RMK AO2 T00380028 =
2018-02-23 15:35 METAR KIGQ 232135Z AUTO 26012KT 10SM OVC010 04/03 A3023 RMK AO2 T00400031 =
2018-02-23 15:15 METAR KIGQ 232115Z AUTO 26009KT 10SM OVC010 04/03 A3023 RMK AO2 T00410031 =
2018-02-23 14:55 METAR KIGQ 232055Z AUTO 27012KT 10SM OVC010 04/03 A3021 RMK AO2 T00420031 =
2018-02-23 14:35 METAR KIGQ 232035Z AUTO 25013KT 10SM OVC010 05/03 A3020 RMK AO2 T00460034 =
2018-02-23 14:15 METAR KIGQ 232015Z AUTO 25010KT 10SM OVC010 05/04 A3020 RMK AO2 T00480036 =
2018-02-23 13:55 METAR KIGQ 231955Z AUTO 27013G16KT 10SM OVC010 05/04 A3020 RMK AO2 T00480036 =
2018-02-23 13:35 METAR KIGQ 231935Z AUTO 26014KT 10SM OVC010 05/04 A3020 RMK AO2 T00460036 =
2018-02-23 13:15 METAR KIGQ 231915Z AUTO 25012G16KT 10SM OVC010 05/04 A3020 RMK AO2 T00470038 =
2018-02-23 12:55 METAR KIGQ 231855Z AUTO 26015G20KT 10SM OVC008 05/04 A3020 RMK AO2 T00460040 =
2018-02-23 12:35 METAR KIGQ 231835Z AUTO 27012KT 10SM OVC010 05/05 A3019 RMK AO2 T00510045 =
2018-02-23 12:15 METAR KIGQ 231815Z AUTO 26012G18KT 10SM OVC010 06/05 A3019 RMK AO2 T00550048 =

Support USWX by starting your Amazon purchase here.